createdAt,value
2024-03-02T00:00:00.567Z,9.58
2024-03-02T00:05:02.427Z,9.47
2024-03-02T00:10:11.722Z,9.44
2024-03-02T00:15:22.914Z,9.41
2024-03-02T00:20:24.800Z,9.53
2024-03-02T00:25:26.459Z,9.43
2024-03-02T00:30:54.020Z,9.45
2024-03-02T00:35:55.716Z,9.63
2024-03-02T00:40:59.776Z,9.71
2024-03-02T00:46:01.454Z,9.68
2024-03-02T00:51:06.664Z,9.66
2024-03-02T00:56:10.825Z,9.62
2024-03-02T01:01:12.560Z,9.68
2024-03-02T01:06:14.279Z,9.71
2024-03-02T01:11:15.996Z,9.68
2024-03-02T01:16:17.715Z,9.65
2024-03-02T01:21:19.554Z,9.50
2024-03-02T01:26:21.656Z,9.51
2024-03-02T01:31:23.326Z,9.65
2024-03-02T01:36:25.052Z,9.69
2024-03-02T01:41:26.736Z,9.73
2024-03-02T01:46:28.376Z,9.58
2024-03-02T01:51:30.233Z,9.65
2024-03-02T01:56:31.934Z,9.61
2024-03-02T02:01:33.636Z,9.69
2024-03-02T02:06:35.347Z,9.57
2024-03-02T02:11:37.023Z,9.47
2024-03-02T02:16:38.705Z,9.31
2024-03-02T02:21:43.840Z,9.48
2024-03-02T02:26:45.574Z,9.66
2024-03-02T02:31:47.295Z,9.66
2024-03-02T02:36:49.061Z,9.67
2024-03-02T02:41:50.726Z,9.61
2024-03-02T02:46:52.333Z,9.63
2024-03-02T02:51:53.997Z,9.47
2024-03-02T02:56:55.691Z,9.47
2024-03-02T03:01:57.332Z,9.58
2024-03-02T03:06:59.098Z,9.59
2024-03-02T03:12:00.801Z,9.62
2024-03-02T03:17:02.528Z,9.60
2024-03-02T03:22:04.687Z,9.61
2024-03-02T03:27:06.581Z,9.54
2024-03-02T03:32:08.345Z,9.49
2024-03-02T03:37:10.833Z,9.67
2024-03-02T03:42:12.518Z,9.62
2024-03-02T03:47:14.176Z,9.51
2024-03-02T03:52:15.842Z,9.61
2024-03-02T03:57:18.116Z,9.58
2024-03-02T04:02:19.804Z,9.34
2024-03-02T04:07:21.419Z,9.46
2024-03-02T04:12:23.370Z,9.45
2024-03-02T04:17:25.208Z,9.48
2024-03-02T04:22:28.203Z,9.57
2024-03-02T04:27:29.925Z,9.63
2024-03-02T04:32:32.487Z,9.61
2024-03-02T04:37:35.550Z,9.52
2024-03-02T04:42:37.406Z,9.76
2024-03-02T04:47:39.060Z,9.69
2024-03-02T04:52:40.676Z,9.76
2024-03-02T04:57:42.336Z,9.76
2024-03-02T05:02:43.995Z,9.81
2024-03-02T05:07:45.754Z,9.86
2024-03-02T05:12:47.424Z,9.91
2024-03-02T05:17:49.146Z,9.77
2024-03-02T05:22:50.897Z,9.77
2024-03-02T05:27:52.815Z,9.85
2024-03-02T05:32:54.442Z,9.89
2024-03-02T05:37:56.092Z,9.90
2024-03-02T05:42:57.896Z,9.86
2024-03-02T05:47:59.625Z,9.85
2024-03-02T05:53:01.282Z,9.80
2024-03-02T05:58:21.765Z,9.82
2024-03-02T06:03:23.382Z,9.84
2024-03-02T06:08:25.027Z,9.75
2024-03-02T06:13:27.527Z,9.81
2024-03-02T06:18:29.194Z,9.86
2024-03-02T06:23:30.838Z,9.82
2024-03-02T06:28:32.468Z,9.93
2024-03-02T06:33:34.186Z,9.88
2024-03-02T06:38:35.933Z,9.88
2024-03-02T06:43:37.621Z,9.90
2024-03-02T06:48:39.316Z,9.86
2024-03-02T06:53:40.941Z,9.87
2024-03-02T06:58:43.979Z,9.89
2024-03-02T07:03:45.760Z,9.86
2024-03-02T07:08:47.432Z,9.90
2024-03-02T07:13:49.070Z,9.95
2024-03-02T07:18:53.072Z,9.89
2024-03-02T07:23:54.948Z,10.02
2024-03-02T07:28:56.565Z,9.95
2024-03-02T07:33:58.348Z,9.91
2024-03-02T07:39:00.114Z,9.94
2024-03-02T07:44:01.815Z,10.00
2024-03-02T07:49:03.494Z,10.07
2024-03-02T07:54:05.379Z,10.04
2024-03-02T07:59:08.423Z,10.00
2024-03-02T08:04:10.098Z,10.09
2024-03-02T08:09:11.796Z,10.07
2024-03-02T08:14:13.445Z,10.09
2024-03-02T08:19:15.139Z,10.09
2024-03-02T08:24:16.788Z,10.08
2024-03-02T08:29:18.383Z,10.04
2024-03-02T08:34:20.059Z,10.17
2024-03-02T08:39:21.890Z,10.15
2024-03-02T08:44:23.517Z,10.19
2024-03-02T08:49:25.125Z,10.22
2024-03-02T08:54:26.855Z,10.31
2024-03-02T08:59:29.012Z,10.33
2024-03-02T09:04:34.864Z,10.51
2024-03-02T09:09:37.136Z,10.67
2024-03-02T09:14:38.966Z,10.74
2024-03-02T09:19:41.401Z,10.76
2024-03-02T09:24:43.105Z,10.86
2024-03-02T09:29:44.795Z,10.88
2024-03-02T09:34:46.475Z,10.99
2024-03-02T09:39:48.138Z,11.01
2024-03-02T09:44:49.957Z,11.03
2024-03-02T09:49:51.681Z,10.93
2024-03-02T09:54:53.663Z,10.92
2024-03-02T09:59:55.288Z,10.94
2024-03-02T10:04:56.904Z,10.82
2024-03-02T10:09:58.911Z,10.74
2024-03-02T10:15:07.585Z,10.82
2024-03-02T10:20:42.024Z,10.90
2024-03-02T10:25:51.778Z,10.96
2024-03-02T10:30:59.527Z,11.04
2024-03-02T10:36:02.071Z,11.10
2024-03-02T10:41:04.828Z,11.10
2024-03-02T10:46:06.607Z,11.26
2024-03-02T10:51:08.459Z,11.26
2024-03-02T10:56:10.859Z,11.34
2024-03-02T11:01:13.725Z,11.39
2024-03-02T11:06:15.653Z,11.67
2024-03-02T11:11:21.138Z,11.83
2024-03-02T11:16:36.777Z,11.87
2024-03-02T11:21:39.244Z,11.84
2024-03-02T11:26:41.279Z,11.91
2024-03-02T11:31:59.324Z,12.15
2024-03-02T11:37:04.944Z,12.18
2024-03-02T11:42:08.074Z,12.13
2024-03-02T11:47:12.170Z,12.19
2024-03-02T11:52:16.112Z,12.26
2024-03-02T11:57:23.725Z,12.17
2024-03-02T12:02:25.470Z,12.09
2024-03-02T12:07:27.808Z,12.13
2024-03-02T12:12:29.493Z,12.05
2024-03-02T12:17:31.267Z,12.03
2024-03-02T12:22:32.962Z,11.88
2024-03-02T12:27:34.880Z,11.83
2024-03-02T12:32:36.564Z,11.77
2024-03-02T12:37:46.455Z,11.85
2024-03-02T12:42:50.464Z,11.78
2024-03-02T12:47:52.818Z,11.80
2024-03-02T12:52:55.444Z,11.94
2024-03-02T12:57:58.280Z,11.97
2024-03-02T13:03:03.621Z,12.09
2024-03-02T13:08:06.338Z,11.99
2024-03-02T13:13:08.043Z,11.83
2024-03-02T13:18:10.503Z,12.01
2024-03-02T13:23:12.240Z,12.22
2024-03-02T13:28:14.284Z,12.15
2024-03-02T13:33:16.359Z,12.34
2024-03-02T13:38:21.656Z,12.12
2024-03-02T13:43:24.820Z,11.95
2024-03-02T13:48:29.339Z,11.92
2024-03-02T13:53:31.045Z,11.94
2024-03-02T13:58:33.103Z,12.01
2024-03-02T14:03:34.840Z,11.98
2024-03-02T14:08:37.097Z,11.94
2024-03-02T14:13:38.759Z,11.82
2024-03-02T14:18:40.721Z,11.83
2024-03-02T14:23:42.356Z,11.99
2024-03-02T14:28:49.942Z,11.84
2024-03-02T14:33:54.225Z,11.87
2024-03-02T14:38:56.555Z,11.96
2024-03-02T14:43:58.199Z,11.90
2024-03-02T14:48:59.975Z,11.90
2024-03-02T14:54:02.272Z,11.86
2024-03-02T14:59:03.902Z,11.80
2024-03-02T15:04:05.688Z,11.75
2024-03-02T15:09:07.765Z,11.77
2024-03-02T15:14:09.401Z,11.81
2024-03-02T15:19:11.175Z,11.76
2024-03-02T15:24:12.865Z,11.73
2024-03-02T15:29:14.556Z,11.76
2024-03-02T15:34:16.258Z,11.76
2024-03-02T15:39:19.271Z,11.84
2024-03-02T15:44:21.132Z,11.77
2024-03-02T15:49:22.814Z,11.71
2024-03-02T15:54:24.550Z,11.67
2024-03-02T15:59:26.264Z,11.64
2024-03-02T16:04:28.077Z,11.68
2024-03-02T16:09:29.744Z,11.69
2024-03-02T16:14:31.379Z,11.61
2024-03-02T16:19:33.672Z,11.60
2024-03-02T16:24:35.623Z,11.65
2024-03-02T16:29:38.479Z,11.60
2024-03-02T16:34:40.256Z,11.59
2024-03-02T16:39:42.062Z,11.59
2024-03-02T16:44:43.944Z,11.56
2024-03-02T16:49:46.244Z,11.55
2024-03-02T16:54:51.515Z,11.57
2024-03-02T16:59:54.570Z,11.59
2024-03-02T17:04:56.196Z,11.55
2024-03-02T17:09:59.227Z,11.51
2024-03-02T17:15:00.915Z,11.45
2024-03-02T17:20:03.260Z,11.38
2024-03-02T17:25:05.829Z,11.42
2024-03-02T17:30:07.900Z,11.39
2024-03-02T17:35:09.694Z,11.34
2024-03-02T17:40:12.278Z,11.34
2024-03-02T17:45:14.065Z,11.32
2024-03-02T17:50:15.743Z,11.23
2024-03-02T17:55:17.447Z,11.18
2024-03-02T18:00:20.927Z,11.18
2024-03-02T18:05:22.599Z,11.09
2024-03-02T18:10:24.266Z,11.04
2024-03-02T18:15:25.961Z,11.03
2024-03-02T18:20:27.616Z,10.98
2024-03-02T18:25:29.372Z,10.93
2024-03-02T18:30:32.505Z,10.92
2024-03-02T18:35:34.612Z,10.88
2024-03-02T18:40:36.295Z,10.85
2024-03-02T18:45:37.944Z,10.77
2024-03-02T18:50:39.678Z,10.76
2024-03-02T18:55:41.454Z,10.73
2024-03-02T19:00:43.155Z,10.67
2024-03-02T19:05:44.924Z,10.60
2024-03-02T19:10:47.151Z,10.61
2024-03-02T19:15:49.033Z,10.59
2024-03-02T19:20:52.421Z,10.48
2024-03-02T19:25:54.903Z,10.54
2024-03-02T19:30:56.774Z,10.53
2024-03-02T19:35:58.462Z,10.50
2024-03-02T19:41:00.545Z,10.48
2024-03-02T19:46:02.184Z,10.46
2024-03-02T19:51:04.145Z,10.43
2024-03-02T19:56:06.060Z,10.24
2024-03-02T20:01:08.562Z,10.20
2024-03-02T20:06:10.858Z,10.23
2024-03-02T20:11:12.572Z,10.26
2024-03-02T20:16:14.309Z,10.33
2024-03-02T20:21:16.008Z,10.00
2024-03-02T20:26:20.278Z,10.14
2024-03-02T20:31:23.730Z,10.16
2024-03-02T20:36:25.397Z,10.04
2024-03-02T20:41:27.449Z,10.03
2024-03-02T20:46:29.072Z,10.12
2024-03-02T20:51:30.925Z,9.97
2024-03-02T20:56:36.697Z,9.97
2024-03-02T21:01:38.504Z,9.94
2024-03-02T21:06:40.205Z,9.85
2024-03-02T21:11:45.448Z,9.93
2024-03-02T21:16:47.199Z,9.93
2024-03-02T21:21:49.038Z,9.78
2024-03-02T21:26:51.044Z,9.76
2024-03-02T21:31:54.739Z,9.67
2024-03-02T21:36:57.120Z,9.68
2024-03-02T21:41:58.969Z,9.68
2024-03-02T21:47:01.167Z,9.57
2024-03-02T21:52:03.862Z,9.62
2024-03-02T21:57:07.327Z,9.64
2024-03-02T22:02:08.991Z,9.70
2024-03-02T22:07:10.784Z,9.75
2024-03-02T22:12:12.558Z,9.76
2024-03-02T22:17:14.144Z,9.77
2024-03-02T22:22:16.379Z,9.80
2024-03-02T22:27:18.061Z,9.75
2024-03-02T22:32:19.669Z,9.78
2024-03-02T22:37:21.512Z,9.85
2024-03-02T22:42:23.150Z,9.99
2024-03-02T22:47:24.817Z,9.90
2024-03-02T22:52:26.706Z,9.97
2024-03-02T22:57:28.348Z,10.07
2024-03-02T23:02:30.765Z,10.06
2024-03-02T23:07:32.506Z,10.16
2024-03-02T23:12:34.219Z,10.15
2024-03-02T23:17:35.875Z,10.15
2024-03-02T23:22:37.725Z,10.11
2024-03-02T23:27:39.594Z,10.14
2024-03-02T23:32:41.292Z,10.15
2024-03-02T23:37:42.983Z,10.15
2024-03-02T23:42:45.371Z,10.15
2024-03-02T23:47:47.125Z,10.13
2024-03-02T23:52:48.794Z,10.15
2024-03-02T23:57:50.450Z,10.09
